Time;durP1;ratioP1;P1;durP2;ratioP2;P2;SDS_P1;SDS_P2;PMS_P1;PMS_P2;Temp;Humidity;BMP_temperature;BMP_pressure;BME280_temperature;BME280_humidity;BME280_pressure;Samples;Min_cycle;Max_cycle;Signal;HPM_P1;HPM_P2
2022/06/23 00:00:47;;;;;;;2.00;1.85;;;;;;;;;;4564452;27;20574;-69
2022/06/23 00:02:59;;;;;;;1.77;1.67;;;;;;;;;;4562804;28;20027;-69
2022/06/23 00:05:17;;;;;;;1.73;1.63;;;;;;;;;;4571330;28;20890;-69
2022/06/23 00:07:33;;;;;;;1.83;1.70;;;;;;;;;;4561872;28;20040;-69
2022/06/23 00:09:52;;;;;;;1.90;1.80;;;;;;;;;;4547285;28;20109;-69
2022/06/23 00:12:38;;;;;;;1.80;1.70;;;;;;;;;;4564977;28;21496;-69
2022/06/23 00:15:13;;;;;;;2.10;1.90;;;;;;;;;;4563318;28;20147;-69
2022/06/23 00:17:30;;;;;;;2.25;1.95;;;;;;;;;;4563475;28;20067;-69
2022/06/23 00:19:40;;;;;;;1.95;1.83;;;;;;;;;;4563377;27;20075;-69
2022/06/23 00:21:52;;;;;;;2.42;1.80;;;;;;;;;;4561388;28;20396;-69
2022/06/23 00:24:06;;;;;;;2.35;2.13;;;;;;;;;;4564790;28;20673;-69
2022/06/23 00:26:23;;;;;;;2.65;1.95;;;;;;;;;;4562967;28;20592;-69
2022/06/23 00:28:46;;;;;;;2.38;2.13;;;;;;;;;;4566559;28;20110;-69
2022/06/23 00:31:00;;;;;;;2.25;2.05;;;;;;;;;;4563720;28;20044;-69
2022/06/23 00:33:22;;;;;;;2.42;2.22;;;;;;;;;;4562350;28;20040;-69
2022/06/23 00:35:34;;;;;;;2.35;2.13;;;;;;;;;;4561224;28;20117;-69
2022/06/23 00:37:52;;;;;;;2.10;1.90;;;;;;;;;;4562326;28;20029;-69
2022/06/23 00:40:07;;;;;;;2.20;2.00;;;;;;;;;;4561555;28;20382;-69
2022/06/23 00:42:29;;;;;;;2.38;2.17;;;;;;;;;;4563141;28;20630;-69
2022/06/23 00:44:45;;;;;;;2.30;2.10;;;;;;;;;;4570404;28;20162;-69
2022/06/23 00:46:58;;;;;;;2.30;2.10;;;;;;;;;;4565353;28;20043;-69
2022/06/23 00:49:34;;;;;;;2.90;2.33;;;;;;;;;;4564393;28;21255;-69
2022/06/23 00:51:54;;;;;;;2.50;2.30;;;;;;;;;;4561078;28;20653;-69
2022/06/23 00:54:13;;;;;;;2.40;2.20;;;;;;;;;;4566946;27;20024;-69
2022/06/23 00:56:42;;;;;;;2.67;2.40;;;;;;;;;;4574695;28;20547;-69
2022/06/23 00:59:00;;;;;;;2.40;2.20;;;;;;;;;;4564057;28;20032;-69
2022/06/23 01:01:35;;;;;;;2.38;2.17;;;;;;;;;;4566380;28;20067;-70
2022/06/23 01:04:33;;;;;;;2.63;2.20;;;;;;;;;;4563907;28;20083;-69
2022/06/23 01:06:56;;;;;;;2.47;2.27;;;;;;;;;;4561683;28;20055;-70
2022/06/23 01:09:24;;;;;;;2.60;2.40;;;;;;;;;;4564234;28;20251;-69
2022/06/23 01:11:52;;;;;;;2.60;2.40;;;;;;;;;;4566172;28;20069;-69
2022/06/23 01:14:30;;;;;;;3.05;2.50;;;;;;;;;;4564966;28;20627;-69
2022/06/23 01:16:49;;;;;;;2.70;2.50;;;;;;;;;;4565753;28;20039;-70
2022/06/23 01:19:20;;;;;;;2.70;2.50;;;;;;;;;;4564975;28;20078;-69
2022/06/23 01:21:42;;;;;;;2.58;2.28;;;;;;;;;;4565730;27;20854;-70
2022/06/23 01:24:06;;;;;;;2.60;2.40;;;;;;;;;;4566934;28;20040;-69
2022/06/23 01:26:31;;;;;;;2.95;2.60;;;;;;;;;;4565446;28;20030;-69
2022/06/23 01:28:42;;;;;;;2.53;2.30;;;;;;;;;;4566788;28;20064;-69
2022/06/23 01:31:14;;;;;;;2.70;2.50;;;;;;;;;;4564944;28;20115;-70
2022/06/23 01:33:30;;;;;;;3.38;2.47;;;;;;;;;;4564144;28;20035;-69
2022/06/23 01:35:59;;;;;;;3.05;2.42;;;;;;;;;;4549973;28;21306;-70
2022/06/23 01:38:14;;;;;;;2.67;2.40;;;;;;;;;;4566947;28;20036;-70
2022/06/23 01:40:31;;;;;;;2.50;2.30;;;;;;;;;;4564866;28;20575;-69
2022/06/23 01:42:50;;;;;;;2.92;2.60;;;;;;;;;;4564621;28;20333;-70
2022/06/23 01:45:03;;;;;;;3.53;2.63;;;;;;;;;;4567852;28;20027;-70
2022/06/23 01:47:46;;;;;;;3.30;2.42;;;;;;;;;;4565035;28;20101;-70
2022/06/23 01:50:23;;;;;;;2.95;2.53;;;;;;;;;;4547767;27;20079;-69
2022/06/23 01:52:33;;;;;;;2.70;2.47;;;;;;;;;;4566961;28;20047;-70
2022/06/23 01:54:44;;;;;;;2.90;2.60;;;;;;;;;;4565125;28;20685;-70
2022/06/23 01:57:04;;;;;;;2.53;2.30;;;;;;;;;;4567910;28;20032;-70
2022/06/23 01:59:24;;;;;;;2.50;2.30;;;;;;;;;;4557577;28;20032;-70
2022/06/23 02:01:46;;;;;;;2.38;2.00;;;;;;;;;;4567767;28;20068;-70
2022/06/23 02:04:30;;;;;;;2.50;2.30;;;;;;;;;;4553535;28;20036;-69
2022/06/23 02:06:50;;;;;;;3.60;2.33;;;;;;;;;;4551177;28;20032;-70
2022/06/23 02:09:11;;;;;;;2.42;2.22;;;;;;;;;;4581076;27;20055;-70
2022/06/23 02:11:32;;;;;;;2.58;2.38;;;;;;;;;;4564682;28;20036;-69
2022/06/23 02:14:06;;;;;;;2.60;2.40;;;;;;;;;;4564788;28;20032;-69
2022/06/23 02:16:26;;;;;;;2.92;2.25;;;;;;;;;;4565574;28;20111;-70
2022/06/23 02:18:57;;;;;;;2.78;2.50;;;;;;;;;;4573055;28;20040;-70
2022/06/23 02:21:45;;;;;;;2.50;2.28;;;;;;;;;;4571501;28;20062;-69
2022/06/23 02:24:00;;;;;;;2.40;2.20;;;;;;;;;;4563751;28;20044;-69
2022/06/23 02:26:51;;;;;;;2.40;2.20;;;;;;;;;;4567310;28;20065;-69
2022/06/23 02:29:25;;;;;;;2.50;2.30;;;;;;;;;;4562582;28;20048;-70
2022/06/23 02:31:46;;;;;;;2.45;2.25;;;;;;;;;;4563620;28;20197;-69
2022/06/23 02:34:03;;;;;;;2.35;2.15;;;;;;;;;;4566165;28;20131;-70
2022/06/23 02:36:26;;;;;;;2.40;2.20;;;;;;;;;;4567048;28;20040;-70
2022/06/23 02:38:54;;;;;;;2.40;2.20;;;;;;;;;;4566019;28;20351;-70
2022/06/23 02:41:09;;;;;;;2.45;2.25;;;;;;;;;;4565751;28;20060;-69
2022/06/23 02:43:33;;;;;;;3.08;2.50;;;;;;;;;;4565587;28;20040;-69
2022/06/23 02:46:12;;;;;;;2.75;2.50;;;;;;;;;;4566821;28;20024;-69
2022/06/23 02:48:44;;;;;;;2.65;2.45;;;;;;;;;;4563616;28;20036;-69
2022/06/23 02:51:22;;;;;;;2.90;2.63;;;;;;;;;;4564572;28;20790;-69
2022/06/23 02:54:01;;;;;;;2.20;1.90;;;;;;;;;;4564748;28;20037;-70
2022/06/23 02:56:33;;;;;;;2.58;2.38;;;;;;;;;;4563865;28;20033;-69
2022/06/23 02:58:55;;;;;;;2.40;2.20;;;;;;;;;;4562631;28;20841;-70
2022/06/23 03:01:10;;;;;;;2.72;2.33;;;;;;;;;;4564845;28;20025;-69
2022/06/23 03:03:33;;;;;;;2.40;2.20;;;;;;;;;;4562001;28;20051;-69
2022/06/23 03:06:23;;;;;;;2.50;2.30;;;;;;;;;;4565160;28;20269;-70
2022/06/23 03:08:51;;;;;;;2.40;2.20;;;;;;;;;;4564551;28;20040;-69
2022/06/23 03:11:07;;;;;;;2.42;2.22;;;;;;;;;;4554082;28;20709;-69
2022/06/23 03:13:38;;;;;;;2.80;2.22;;;;;;;;;;4563097;28;20056;-68
2022/06/23 03:15:51;;;;;;;2.28;1.98;;;;;;;;;;4566404;27;20602;-70
2022/06/23 03:18:27;;;;;;;2.33;2.13;;;;;;;;;;4562984;28;20039;-70
2022/06/23 03:20:49;;;;;;;2.38;2.17;;;;;;;;;;4551963;28;20143;-70
2022/06/23 03:23:19;;;;;;;2.25;2.05;;;;;;;;;;4563095;28;20311;-70
2022/06/23 03:25:42;;;;;;;2.33;1.90;;;;;;;;;;4562747;28;20089;-70
2022/06/23 03:28:03;;;;;;;2.20;2.00;;;;;;;;;;4560790;28;20965;-70
2022/06/23 03:30:27;;;;;;;2.25;2.05;;;;;;;;;;4565787;28;20040;-71
2022/06/23 03:33:27;;;;;;;2.10;1.90;;;;;;;;;;4550820;28;20089;-70
2022/06/23 03:36:05;;;;;;;2.22;2.03;;;;;;;;;;4563811;28;20620;-70
2022/06/23 03:41:36;;;;;;;2.22;1.80;;;;;;;;;;4539918;28;20056;-70
2022/06/23 03:43:31;;;;;;;1.70;1.60;;;;;;;;;;4566004;28;20123;-70
2022/06/23 03:45:47;;;;;;;2.20;1.90;;;;;;;;;;4564028;28;20032;-70
2022/06/23 03:48:24;;;;;;;1.92;1.83;;;;;;;;;;4565378;28;20047;-70
2022/06/23 03:50:59;;;;;;;2.43;2.20;;;;;;;;;;4561098;28;20138;-70
2022/06/23 03:54:06;;;;;;;1.90;1.70;;;;;;;;;;4554009;28;20040;-70
2022/06/23 03:56:20;;;;;;;2.05;1.85;;;;;;;;;;4516361;28;20049;-70
2022/06/23 03:58:38;;;;;;;2.30;2.10;;;;;;;;;;4554526;28;20055;-70
2022/06/23 04:01:01;;;;;;;2.10;1.90;;;;;;;;;;4560713;28;20567;-70
2022/06/23 04:03:25;;;;;;;2.65;2.10;;;;;;;;;;4563499;27;20174;-70
2022/06/23 04:06:02;;;;;;;2.38;2.17;;;;;;;;;;4561373;28;20124;-70
2022/06/23 04:08:12;;;;;;;2.63;2.35;;;;;;;;;;4558298;28;20057;-70
2022/06/23 04:10:28;;;;;;;1.80;1.70;;;;;;;;;;4562410;28;20025;-70
2022/06/23 04:12:45;;;;;;;3.05;2.33;;;;;;;;;;4561873;28;20032;-70
2022/06/23 04:15:00;;;;;;;2.72;1.60;;;;;;;;;;4562020;28;20136;-70
2022/06/23 04:17:21;;;;;;;2.10;1.85;;;;;;;;;;4563761;28;20607;-70
2022/06/23 04:19:33;;;;;;;2.13;1.92;;;;;;;;;;4564510;28;20032;-70
2022/06/23 04:21:46;;;;;;;2.03;1.83;;;;;;;;;;4570958;28;20036;-70
2022/06/23 04:24:03;;;;;;;2.60;1.90;;;;;;;;;;4563713;28;20036;-70
2022/06/23 04:26:23;;;;;;;1.80;1.70;;;;;;;;;;4563626;27;20103;-70
2022/06/23 04:28:36;;;;;;;2.50;1.90;;;;;;;;;;4561684;27;20858;-70
2022/06/23 04:30:47;;;;;;;2.88;1.90;;;;;;;;;;4564095;28;20689;-70
2022/06/23 04:33:00;;;;;;;1.95;1.77;;;;;;;;;;4560735;28;20070;-70
2022/06/23 04:35:38;;;;;;;2.13;1.83;;;;;;;;;;4563275;28;21227;-69
2022/06/23 04:38:11;;;;;;;1.80;1.60;;;;;;;;;;4564122;28;20135;-70
2022/06/23 04:40:27;;;;;;;1.73;1.50;;;;;;;;;;4562763;28;21406;-70
2022/06/23 04:42:44;;;;;;;2.28;1.73;;;;;;;;;;4561619;27;20037;-69
2022/06/23 04:45:23;;;;;;;1.60;1.50;;;;;;;;;;4562660;28;20057;-70
2022/06/23 04:47:33;;;;;;;2.92;1.80;;;;;;;;;;4572155;28;20688;-69
2022/06/23 04:49:50;;;;;;;1.83;1.60;;;;;;;;;;4562961;27;20024;-70
2022/06/23 04:52:04;;;;;;;2.00;1.70;;;;;;;;;;4570714;28;20614;-70
2022/06/23 04:54:25;;;;;;;2.50;1.90;;;;;;;;;;4561520;28;20642;-70
2022/06/23 04:56:43;;;;;;;2.28;1.80;;;;;;;;;;4562114;28;20054;-69
2022/06/23 04:58:59;;;;;;;1.98;1.80;;;;;;;;;;4548464;28;20653;-69
2022/06/23 05:01:14;;;;;;;1.70;1.60;;;;;;;;;;4563375;28;20123;-70
2022/06/23 05:03:35;;;;;;;1.77;1.60;;;;;;;;;;4562638;28;20635;-70
2022/06/23 05:05:53;;;;;;;2.17;1.90;;;;;;;;;;4562659;28;20032;-69
2022/06/23 05:08:25;;;;;;;1.60;1.50;;;;;;;;;;4544446;28;20624;-69
2022/06/23 05:10:52;;;;;;;1.60;1.50;;;;;;;;;;4565602;27;20317;-70
2022/06/23 05:13:13;;;;;;;1.92;1.67;;;;;;;;;;4560917;27;20151;-70
2022/06/23 05:15:33;;;;;;;1.80;1.60;;;;;;;;;;4562298;28;20028;-70
2022/06/23 05:17:52;;;;;;;2.08;1.70;;;;;;;;;;4562322;28;20594;-69
2022/06/23 05:20:05;;;;;;;1.80;1.60;;;;;;;;;;4560674;28;20610;-70
2022/06/23 05:22:27;;;;;;;2.90;1.60;;;;;;;;;;4564848;28;20034;-70
2022/06/23 05:24:41;;;;;;;1.92;1.65;;;;;;;;;;4564306;27;20020;-70
2022/06/23 05:27:11;;;;;;;1.70;1.60;;;;;;;;;;4562793;28;20097;-70
2022/06/23 05:29:25;;;;;;;1.85;1.60;;;;;;;;;;4560489;28;20036;-69
2022/06/23 05:31:36;;;;;;;1.50;1.40;;;;;;;;;;4561638;27;20024;-69
2022/06/23 05:33:49;;;;;;;1.77;1.50;;;;;;;;;;4561313;28;20709;-70
2022/06/23 05:36:03;;;;;;;1.83;1.40;;;;;;;;;;4561952;28;20037;-69
2022/06/23 05:38:30;;;;;;;1.77;1.65;;;;;;;;;;4562218;28;20643;-70
2022/06/23 05:40:49;;;;;;;2.67;1.42;;;;;;;;;;4566207;28;20036;-70
2022/06/23 05:43:02;;;;;;;1.60;1.50;;;;;;;;;;4572996;28;20047;-69
2022/06/23 05:45:19;;;;;;;1.40;1.30;;;;;;;;;;4556103;28;20036;-69
2022/06/23 05:47:32;;;;;;;2.40;1.73;;;;;;;;;;4567464;28;20033;-69
2022/06/23 05:49:47;;;;;;;2.17;1.60;;;;;;;;;;4529125;28;20025;-69
2022/06/23 05:52:12;;;;;;;2.53;1.67;;;;;;;;;;4566372;28;20043;-70
2022/06/23 05:54:32;;;;;;;1.70;1.60;;;;;;;;;;4579450;27;20032;-69
2022/06/23 05:56:54;;;;;;;1.67;1.40;;;;;;;;;;4563985;28;20111;-70
2022/06/23 05:59:17;;;;;;;1.95;1.30;;;;;;;;;;4565032;28;20070;-70
2022/06/23 06:01:35;;;;;;;2.33;1.63;;;;;;;;;;4565809;28;20033;-70
2022/06/23 06:03:52;;;;;;;1.48;1.33;;;;;;;;;;4567397;28;20028;-69
2022/06/23 06:06:03;;;;;;;1.50;1.40;;;;;;;;;;4568187;28;20041;-69
2022/06/23 06:08:21;;;;;;;2.42;1.58;;;;;;;;;;4564196;28;21049;-70
2022/06/23 06:10:33;;;;;;;2.28;1.50;;;;;;;;;;4563703;28;20041;-70
2022/06/23 06:12:44;;;;;;;1.50;1.40;;;;;;;;;;4564242;28;20029;-69
2022/06/23 06:14:58;;;;;;;1.60;1.50;;;;;;;;;;4564596;28;20576;-69
2022/06/23 06:17:15;;;;;;;1.90;1.52;;;;;;;;;;4565548;28;20032;-69
2022/06/23 06:19:26;;;;;;;2.00;1.60;;;;;;;;;;4565249;28;20040;-70
2022/06/23 06:21:37;;;;;;;1.80;1.50;;;;;;;;;;4566865;28;20039;-69
2022/06/23 06:24:00;;;;;;;1.98;1.42;;;;;;;;;;4565448;27;20051;-68
2022/06/23 06:26:13;;;;;;;1.85;1.58;;;;;;;;;;4571586;28;20040;-70
2022/06/23 06:28:28;;;;;;;2.35;1.48;;;;;;;;;;4566581;28;20517;-70
2022/06/23 06:30:41;;;;;;;3.15;1.40;;;;;;;;;;4564132;28;20032;-69
2022/06/23 06:32:52;;;;;;;1.95;1.50;;;;;;;;;;4565096;28;20032;-70
2022/06/23 06:35:21;;;;;;;1.85;1.42;;;;;;;;;;4564292;28;20037;-69
2022/06/23 06:37:36;;;;;;;1.73;1.30;;;;;;;;;;4565203;28;20834;-68
2022/06/23 06:39:51;;;;;;;1.92;1.50;;;;;;;;;;4564012;28;20111;-67
2022/06/23 06:42:05;;;;;;;1.50;1.40;;;;;;;;;;4564826;28;20044;-67
2022/06/23 06:44:17;;;;;;;1.40;1.30;;;;;;;;;;4566746;28;20600;-67
2022/06/23 06:46:29;;;;;;;2.55;1.40;;;;;;;;;;4565672;28;20120;-68
2022/06/23 06:48:43;;;;;;;2.20;1.40;;;;;;;;;;4564969;28;20044;-67
2022/06/23 06:50:58;;;;;;;1.50;1.40;;;;;;;;;;4571396;27;20734;-68
2022/06/23 06:53:51;;;;;;;1.55;1.27;;;;;;;;;;4565158;28;20032;-68
2022/06/23 06:56:21;;;;;;;2.90;1.60;;;;;;;;;;4559065;27;20071;-68
2022/06/23 06:58:49;;;;;;;1.40;1.30;;;;;;;;;;4566870;28;20036;-67
2022/06/23 07:01:11;;;;;;;1.42;1.30;;;;;;;;;;4563310;28;20523;-68
2022/06/23 07:03:24;;;;;;;1.05;0.90;;;;;;;;;;4566436;28;20087;-67
2022/06/23 07:06:02;;;;;;;0.75;0.70;;;;;;;;;;4562470;27;20087;-67
2022/06/23 07:08:17;;;;;;;0.60;0.60;;;;;;;;;;4562311;27;20047;-66
2022/06/23 07:10:37;;;;;;;0.60;0.60;;;;;;;;;;4564528;28;20035;-68
2022/06/23 07:12:55;;;;;;;0.63;0.57;;;;;;;;;;4566310;28;20720;-68
2022/06/23 07:15:18;;;;;;;0.60;0.60;;;;;;;;;;4563710;28;20113;-67
2022/06/23 07:17:34;;;;;;;0.52;0.50;;;;;;;;;;4564412;28;20898;-68
2022/06/23 07:20:18;;;;;;;0.57;0.57;;;;;;;;;;4560849;28;20040;-67
2022/06/23 07:22:47;;;;;;;0.60;0.60;;;;;;;;;;4552566;28;20724;-68
2022/06/23 07:24:57;;;;;;;0.60;0.60;;;;;;;;;;4562383;28;20071;-66
2022/06/23 07:27:24;;;;;;;0.63;0.60;;;;;;;;;;4563166;27;20107;-67
2022/06/23 07:29:56;;;;;;;0.60;0.60;;;;;;;;;;4565183;28;20127;-68
2022/06/23 07:32:34;;;;;;;0.60;0.60;;;;;;;;;;4563151;27;20075;-67
2022/06/23 07:34:53;;;;;;;0.60;0.60;;;;;;;;;;4563346;28;20036;-67
2022/06/23 07:37:22;;;;;;;0.70;0.70;;;;;;;;;;4565497;28;20032;-67
2022/06/23 07:39:34;;;;;;;0.60;0.57;;;;;;;;;;4561793;28;20543;-67
2022/06/23 07:42:04;;;;;;;0.60;0.60;;;;;;;;;;4570915;28;20091;-67
2022/06/23 07:44:20;;;;;;;0.60;0.60;;;;;;;;;;4561866;28;20048;-68
2022/06/23 07:46:32;;;;;;;0.85;0.65;;;;;;;;;;4562816;28;20042;-67
2022/06/23 07:48:43;;;;;;;0.80;0.60;;;;;;;;;;4561426;28;20040;-67
2022/06/23 07:50:54;;;;;;;0.50;0.50;;;;;;;;;;4563624;28;20041;-67
2022/06/23 07:53:06;;;;;;;0.93;0.60;;;;;;;;;;4561507;28;20135;-68
2022/06/23 07:55:31;;;;;;;0.60;0.60;;;;;;;;;;4562618;28;20072;-67
2022/06/23 07:57:42;;;;;;;0.47;0.47;;;;;;;;;;4565818;28;20576;-68
2022/06/23 07:59:59;;;;;;;0.55;0.55;;;;;;;;;;4561413;28;20024;-67
2022/06/23 08:02:20;;;;;;;0.60;0.60;;;;;;;;;;4562982;27;20127;-67
2022/06/23 08:04:37;;;;;;;0.82;0.52;;;;;;;;;;4565241;28;21007;-68
2022/06/23 08:06:48;;;;;;;0.60;0.60;;;;;;;;;;4571001;28;20040;-68
2022/06/23 08:09:03;;;;;;;0.57;0.57;;;;;;;;;;4565004;27;20039;-68
2022/06/23 08:13:46;;;;;;;0.60;0.60;;;;;;;;;;4563794;28;20037;-68
2022/06/23 08:18:44;;;;;;;0.60;0.60;;;;;;;;;;4561891;27;20602;-69
2022/06/23 08:21:15;;;;;;;0.60;0.60;;;;;;;;;;4560745;28;20039;-67
2022/06/23 08:23:28;;;;;;;0.60;0.60;;;;;;;;;;4562331;28;20162;-68
2022/06/23 08:25:40;;;;;;;0.60;0.60;;;;;;;;;;4570883;28;20564;-67
2022/06/23 08:27:52;;;;;;;0.70;0.70;;;;;;;;;;4562532;28;20596;-67
2022/06/23 08:30:07;;;;;;;0.60;0.60;;;;;;;;;;4563076;27;21131;-68
2022/06/23 08:32:18;;;;;;;0.70;0.70;;;;;;;;;;4559824;28;20036;-67
2022/06/23 08:34:31;;;;;;;0.43;0.43;;;;;;;;;;4560656;28;20032;-67
2022/06/23 08:36:47;;;;;;;0.60;0.60;;;;;;;;;;4561901;27;20040;-68
2022/06/23 08:39:03;;;;;;;0.50;0.50;;;;;;;;;;4561832;28;20693;-69
2022/06/23 08:41:38;;;;;;;0.80;0.60;;;;;;;;;;4570936;28;20593;-68
2022/06/23 08:44:07;;;;;;;0.80;0.60;;;;;;;;;;4563172;27;20047;-67
2022/06/23 08:46:35;;;;;;;0.40;0.40;;;;;;;;;;4564557;28;20040;-67
2022/06/23 08:49:03;;;;;;;0.50;0.50;;;;;;;;;;4562823;28;20043;-68
2022/06/23 08:51:13;;;;;;;0.50;0.50;;;;;;;;;;4561145;28;20074;-68
2022/06/23 08:53:36;;;;;;;0.50;0.50;;;;;;;;;;4560416;28;20071;-68
2022/06/23 08:55:48;;;;;;;0.50;0.50;;;;;;;;;;4561247;28;20075;-68
2022/06/23 08:58:08;;;;;;;0.60;0.57;;;;;;;;;;4570813;28;20043;-67
2022/06/23 09:00:33;;;;;;;0.50;0.50;;;;;;;;;;4563337;28;20032;-68
2022/06/23 09:03:05;;;;;;;0.57;0.57;;;;;;;;;;4560179;28;20065;-67
2022/06/23 09:05:18;;;;;;;0.50;0.50;;;;;;;;;;4561988;28;20033;-67
2022/06/23 09:07:40;;;;;;;0.50;0.50;;;;;;;;;;4560714;28;20102;-67
2022/06/23 09:10:02;;;;;;;0.77;0.60;;;;;;;;;;4564191;28;20114;-68
2022/06/23 09:12:29;;;;;;;0.57;0.57;;;;;;;;;;4563714;27;20079;-67
2022/06/23 09:14:54;;;;;;;0.60;0.60;;;;;;;;;;4563457;28;20127;-67
2022/06/23 09:17:46;;;;;;;0.60;0.60;;;;;;;;;;4566794;28;20186;-67
2022/06/23 09:20:15;;;;;;;0.50;0.50;;;;;;;;;;4555387;27;20121;-67
2022/06/23 09:22:47;;;;;;;0.50;0.50;;;;;;;;;;4563309;27;20040;-67
2022/06/23 09:25:27;;;;;;;0.60;0.60;;;;;;;;;;4566417;28;20037;-67
2022/06/23 09:27:59;;;;;;;0.60;0.60;;;;;;;;;;4563814;28;20044;-66
2022/06/23 09:30:18;;;;;;;0.45;0.45;;;;;;;;;;4564697;28;20838;-67
2022/06/23 09:32:59;;;;;;;0.95;0.55;;;;;;;;;;4565887;27;20036;-67
2022/06/23 09:35:24;;;;;;;0.50;0.50;;;;;;;;;;4547286;28;20127;-68
2022/06/23 09:37:47;;;;;;;0.52;0.52;;;;;;;;;;4564776;28;20038;-67
2022/06/23 09:40:03;;;;;;;0.55;0.50;;;;;;;;;;4564352;28;20655;-67
2022/06/23 09:42:36;;;;;;;0.47;0.47;;;;;;;;;;4564524;27;20079;-67
2022/06/23 09:44:55;;;;;;;0.52;0.52;;;;;;;;;;4563982;28;20083;-67
2022/06/23 09:47:13;;;;;;;0.40;0.40;;;;;;;;;;4564718;28;21018;-67
2022/06/23 09:49:50;;;;;;;0.57;0.57;;;;;;;;;;4573620;28;20775;-67
2022/06/23 09:52:15;;;;;;;0.60;0.60;;;;;;;;;;4563795;28;20056;-67
2022/06/23 09:54:50;;;;;;;0.63;0.55;;;;;;;;;;4563906;28;20041;-67
2022/06/23 09:57:03;;;;;;;0.52;0.52;;;;;;;;;;4562815;28;20028;-67
2022/06/23 09:59:37;;;;;;;0.88;0.50;;;;;;;;;;4564998;28;20587;-67
2022/06/23 10:02:15;;;;;;;0.50;0.50;;;;;;;;;;4567312;28;20044;-67
2022/06/23 10:04:42;;;;;;;0.40;0.40;;;;;;;;;;4564584;28;20056;-67
2022/06/23 10:07:03;;;;;;;0.60;0.60;;;;;;;;;;4562960;28;20039;-67
2022/06/23 10:09:26;;;;;;;0.60;0.50;;;;;;;;;;4565267;28;20613;-68
2022/06/23 10:11:47;;;;;;;0.50;0.50;;;;;;;;;;4564085;28;20705;-67
2022/06/23 10:14:00;;;;;;;0.47;0.47;;;;;;;;;;4564216;28;20034;-68
2022/06/23 10:16:29;;;;;;;0.50;0.50;;;;;;;;;;4572236;28;20067;-67
2022/06/23 10:19:01;;;;;;;0.52;0.52;;;;;;;;;;4562669;28;20020;-67
2022/06/23 10:21:49;;;;;;;0.40;0.40;;;;;;;;;;4564899;28;20039;-67
2022/06/23 10:24:21;;;;;;;0.40;0.40;;;;;;;;;;4564198;28;20139;-68
2022/06/23 10:26:48;;;;;;;0.40;0.40;;;;;;;;;;4563565;28;20110;-68
2022/06/23 10:29:29;;;;;;;0.40;0.40;;;;;;;;;;4562397;28;20043;-67
2022/06/23 10:32:21;;;;;;;0.50;0.50;;;;;;;;;;4564189;28;20347;-68
2022/06/23 10:34:40;;;;;;;0.50;0.50;;;;;;;;;;4564399;28;20028;-68
2022/06/23 10:36:54;;;;;;;0.50;0.50;;;;;;;;;;4564497;28;20035;-68
2022/06/23 10:39:05;;;;;;;0.60;0.50;;;;;;;;;;4564147;28;20028;-68
2022/06/23 10:41:21;;;;;;;0.50;0.50;;;;;;;;;;4565167;28;20045;-68
2022/06/23 10:43:38;;;;;;;0.40;0.40;;;;;;;;;;4573070;28;20047;-68
2022/06/23 10:46:11;;;;;;;0.40;0.40;;;;;;;;;;4563642;28;20048;-67
2022/06/23 10:48:52;;;;;;;0.45;0.43;;;;;;;;;;4562391;28;20044;-67
2022/06/23 10:51:16;;;;;;;0.40;0.40;;;;;;;;;;4562816;28;20595;-67
2022/06/23 10:53:48;;;;;;;0.40;0.40;;;;;;;;;;4554909;28;20032;-67
2022/06/23 10:56:04;;;;;;;0.45;0.45;;;;;;;;;;4548905;28;20128;-67
2022/06/23 10:58:32;;;;;;;0.50;0.50;;;;;;;;;;4563648;27;20090;-67
2022/06/23 11:00:52;;;;;;;0.40;0.40;;;;;;;;;;4563594;28;20063;-67
2022/06/23 11:03:24;;;;;;;0.60;0.60;;;;;;;;;;4565085;28;20642;-67
2022/06/23 11:05:50;;;;;;;0.50;0.50;;;;;;;;;;4564495;28;20584;-68
2022/06/23 11:08:23;;;;;;;0.40;0.40;;;;;;;;;;4548898;28;21050;-67
2022/06/23 11:10:45;;;;;;;0.55;0.47;;;;;;;;;;4570906;28;20077;-67
2022/06/23 11:13:11;;;;;;;0.40;0.40;;;;;;;;;;4564238;28;20035;-68
2022/06/23 11:15:52;;;;;;;0.50;0.50;;;;;;;;;;4563425;28;20040;-67
2022/06/23 11:18:28;;;;;;;0.50;0.50;;;;;;;;;;4562729;28;21005;-67
2022/06/23 11:20:54;;;;;;;0.45;0.45;;;;;;;;;;4561155;28;20044;-67
2022/06/23 11:23:26;;;;;;;0.50;0.50;;;;;;;;;;4565015;28;20043;-67
2022/06/23 11:25:58;;;;;;;0.50;0.50;;;;;;;;;;4561923;28;20248;-68
2022/06/23 11:28:24;;;;;;;0.50;0.50;;;;;;;;;;4563953;27;20854;-67
2022/06/23 11:31:35;;;;;;;0.43;0.43;;;;;;;;;;4566793;28;20107;-68
2022/06/23 11:33:58;;;;;;;0.50;0.50;;;;;;;;;;4518663;28;20671;-68
2022/06/23 11:36:18;;;;;;;0.40;0.40;;;;;;;;;;4561936;27;20044;-67
2022/06/23 11:38:28;;;;;;;0.40;0.40;;;;;;;;;;4561796;28;20603;-67
2022/06/23 11:40:45;;;;;;;0.50;0.50;;;;;;;;;;4565330;27;20032;-68
2022/06/23 11:43:14;;;;;;;0.50;0.50;;;;;;;;;;4566198;28;20929;-68
2022/06/23 11:45:33;;;;;;;0.40;0.40;;;;;;;;;;4562271;28;20032;-68
2022/06/23 11:47:56;;;;;;;0.40;0.40;;;;;;;;;;4564345;27;20048;-68
2022/06/23 11:50:28;;;;;;;0.40;0.40;;;;;;;;;;4562610;28;20086;-68
2022/06/23 11:52:57;;;;;;;0.35;0.35;;;;;;;;;;4565001;28;20038;-68
2022/06/23 11:55:17;;;;;;;0.40;0.40;;;;;;;;;;4564532;28;20032;-68
2022/06/23 11:58:01;;;;;;;0.40;0.40;;;;;;;;;;4562863;28;20871;-67
2022/06/23 12:00:15;;;;;;;0.40;0.40;;;;;;;;;;4562289;28;20067;-67
2022/06/23 12:02:25;;;;;;;0.50;0.50;;;;;;;;;;4566561;28;20028;-67
2022/06/23 12:04:48;;;;;;;0.50;0.50;;;;;;;;;;4561336;28;20024;-68
2022/06/23 12:07:08;;;;;;;0.30;0.30;;;;;;;;;;4562142;28;20575;-68
2022/06/23 12:09:40;;;;;;;0.40;0.40;;;;;;;;;;4564135;28;20037;-68
2022/06/23 12:11:51;;;;;;;0.40;0.40;;;;;;;;;;4563413;28;20491;-68
2022/06/23 12:14:03;;;;;;;0.40;0.40;;;;;;;;;;4563382;28;20028;-67
2022/06/23 12:16:14;;;;;;;0.47;0.47;;;;;;;;;;4567102;28;20343;-68
2022/06/23 12:18:34;;;;;;;0.40;0.40;;;;;;;;;;4563770;28;20120;-68
2022/06/23 12:20:47;;;;;;;0.45;0.45;;;;;;;;;;4563424;28;20673;-67
2022/06/23 12:23:19;;;;;;;0.50;0.50;;;;;;;;;;4563408;28;20721;-67
2022/06/23 12:25:56;;;;;;;0.40;0.40;;;;;;;;;;4562891;28;20028;-67
2022/06/23 12:28:18;;;;;;;0.43;0.43;;;;;;;;;;4554836;28;20642;-68
2022/06/23 12:30:32;;;;;;;0.40;0.40;;;;;;;;;;4563894;28;20033;-67
2022/06/23 12:32:56;;;;;;;0.40;0.40;;;;;;;;;;4569950;28;20036;-67
2022/06/23 12:35:24;;;;;;;0.43;0.43;;;;;;;;;;4566419;28;20585;-67
2022/06/23 12:37:53;;;;;;;0.43;0.43;;;;;;;;;;4572151;28;20977;-67
2022/06/23 12:40:14;;;;;;;0.70;0.65;;;;;;;;;;4562800;28;20029;-67
2022/06/23 12:42:35;;;;;;;0.30;0.30;;;;;;;;;;4562435;28;20028;-67
2022/06/23 12:44:56;;;;;;;0.30;0.30;;;;;;;;;;4563151;27;20039;-67
2022/06/23 12:47:06;;;;;;;0.40;0.40;;;;;;;;;;4562766;28;20901;-67
2022/06/23 12:49:19;;;;;;;0.40;0.40;;;;;;;;;;4564864;27;20136;-67
2022/06/23 12:51:54;;;;;;;0.50;0.50;;;;;;;;;;4567061;27;20300;-67
2022/06/23 12:54:33;;;;;;;0.50;0.50;;;;;;;;;;4564750;28;20036;-67
2022/06/23 12:56:56;;;;;;;0.40;0.40;;;;;;;;;;4550860;27;20045;-67
2022/06/23 12:59:17;;;;;;;0.40;0.40;;;;;;;;;;4565778;28;20024;-67
2022/06/23 13:01:46;;;;;;;0.40;0.40;;;;;;;;;;4564379;28;20148;-68
2022/06/23 13:04:04;;;;;;;0.50;0.50;;;;;;;;;;4566111;28;20033;-67
2022/06/23 13:06:34;;;;;;;0.40;0.40;;;;;;;;;;4565127;28;20128;-67
2022/06/23 13:09:09;;;;;;;0.47;0.47;;;;;;;;;;4566664;28;20032;-68
2022/06/23 13:11:27;;;;;;;0.40;0.40;;;;;;;;;;4573040;28;20036;-67
2022/06/23 13:13:42;;;;;;;0.30;0.30;;;;;;;;;;4568227;28;20028;-67
2022/06/23 13:15:59;;;;;;;0.40;0.40;;;;;;;;;;4573762;28;20231;-67
2022/06/23 13:18:17;;;;;;;0.40;0.40;;;;;;;;;;4564309;28;20039;-67
2022/06/23 13:20:45;;;;;;;0.30;0.30;;;;;;;;;;4564466;28;20663;-68
2022/06/23 13:22:59;;;;;;;0.40;0.40;;;;;;;;;;4564225;28;20035;-67
2022/06/23 13:25:14;;;;;;;0.40;0.40;;;;;;;;;;4564064;28;20036;-67
2022/06/23 13:27:28;;;;;;;0.40;0.40;;;;;;;;;;4566644;28;20488;-67
2022/06/23 13:29:51;;;;;;;0.35;0.35;;;;;;;;;;4573837;28;20098;-69
2022/06/23 13:32:40;;;;;;;0.40;0.40;;;;;;;;;;4565836;28;20807;-67
2022/06/23 13:34:56;;;;;;;0.43;0.43;;;;;;;;;;4562075;28;20048;-67
2022/06/23 13:37:24;;;;;;;0.30;0.30;;;;;;;;;;4564864;28;20032;-67
2022/06/23 13:40:04;;;;;;;;;;;;;;;;;;4563373;28;20140;-67
2022/06/23 13:42:23;;;;;;;0.40;0.40;;;;;;;;;;4563266;27;21034;-67
2022/06/23 13:44:53;;;;;;;0.40;0.40;;;;;;;;;;4564478;28;20553;-67
2022/06/23 13:47:15;;;;;;;0.40;0.40;;;;;;;;;;4566608;28;21098;-67
2022/06/23 13:49:40;;;;;;;0.40;0.40;;;;;;;;;;4565265;28;20086;-68
2022/06/23 13:51:51;;;;;;;0.50;0.50;;;;;;;;;;4566193;28;20047;-68
2022/06/23 13:54:14;;;;;;;0.35;0.35;;;;;;;;;;4564895;28;20472;-67
2022/06/23 13:56:43;;;;;;;0.40;0.40;;;;;;;;;;4572970;28;20913;-67
2022/06/23 13:59:02;;;;;;;0.40;0.40;;;;;;;;;;4564117;28;21029;-67
2022/06/23 14:01:21;;;;;;;0.32;0.32;;;;;;;;;;4563327;27;20190;-67
2022/06/23 14:03:50;;;;;;;0.43;0.40;;;;;;;;;;4566630;28;20024;-68
2022/06/23 14:06:06;;;;;;;0.40;0.40;;;;;;;;;;4564618;28;20075;-68
2022/06/23 14:08:26;;;;;;;0.30;0.30;;;;;;;;;;4536969;28;20048;-68
2022/06/23 14:11:16;;;;;;;0.40;0.40;;;;;;;;;;4566474;27;20060;-67
2022/06/23 14:13:49;;;;;;;0.40;0.40;;;;;;;;;;4555645;28;20110;-68
2022/06/23 14:16:11;;;;;;;0.40;0.40;;;;;;;;;;4567340;28;20071;-68
2022/06/23 14:18:34;;;;;;;0.50;0.50;;;;;;;;;;4564617;27;20596;-68
2022/06/23 14:20:54;;;;;;;0.30;0.30;;;;;;;;;;4564226;28;20584;-68
2022/06/23 14:23:14;;;;;;;0.47;0.45;;;;;;;;;;4571901;28;20131;-68
2022/06/23 14:25:36;;;;;;;0.40;0.40;;;;;;;;;;4549041;28;20626;-68